Time;durP1;ratioP1;P1;durP2;ratioP2;P2;SDS_P1;SDS_P2;PMS_P1;PMS_P2;Temp;Humidity;BMP_temperature;BMP_pressure;BME280_temperature;BME280_humidity;BME280_pressure;Samples;Min_cycle;Max_cycle;Signal;HPM_P1;HPM_P2
2023/11/01 00:01:33;;;;;;;12.40;6.70;;;;;;;13.49;100.00;99357.37;88374;281;136780;-78
2023/11/01 00:03:35;;;;;;;9.30;6.50;;;;;;;13.46;100.00;99362.11;88643;276;23328;-78
2023/11/01 00:05:38;;;;;;;11.50;6.40;;;;;;;13.46;100.00;99365.17;88574;279;136678;-80
2023/11/01 00:07:41;;;;;;;11.10;7.40;;;;;;;13.44;100.00;99364.06;88819;272;22534;-77
2023/11/01 00:09:43;;;;;;;11.90;6.10;;;;;;;13.43;100.00;99364.42;88644;280;138020;-76
2023/11/01 00:11:45;;;;;;;13.80;7.10;;;;;;;13.43;100.00;99356.23;88563;280;22555;-75
2023/11/01 00:13:47;;;;;;;13.40;6.90;;;;;;;13.42;100.00;99351.52;88479;280;137460;-82
2023/11/01 00:15:48;;;;;;;11.30;6.60;;;;;;;13.41;100.00;99354.04;88525;278;22611;-83
2023/11/01 00:17:50;;;;;;;15.90;7.60;;;;;;;13.42;100.00;99350.52;88484;280;136826;-80
2023/11/01 00:19:52;;;;;;;9.20;6.10;;;;;;;13.42;100.00;99346.09;88554;280;24341;-79
2023/11/01 00:21:54;;;;;;;11.10;7.00;;;;;;;13.41;100.00;99343.75;88623;279;137615;-80
2023/11/01 00:23:57;;;;;;;14.90;7.50;;;;;;;13.42;100.00;99349.35;88502;273;23849;-80
2023/11/01 00:25:59;;;;;;;11.00;5.90;;;;;;;13.42;100.00;99347.25;88798;280;136791;-78
2023/11/01 00:28:02;;;;;;;11.50;7.10;;;;;;;13.42;100.00;99346.63;89129;276;22477;-81
2023/11/01 00:30:05;;;;;;;14.80;7.70;;;;;;;13.42;100.00;99344.03;89134;276;25168;-83
2023/11/01 00:32:07;;;;;;;12.10;6.00;;;;;;;13.41;100.00;99344.98;88842;279;137425;-80
2023/11/01 00:34:08;;;;;;;7.70;6.00;;;;;;;13.41;100.00;99346.96;88492;278;22556;-78
2023/11/01 00:36:10;;;;;;;10.50;6.70;;;;;;;13.41;100.00;99344.83;88419;281;137698;-79
2023/11/01 00:38:12;;;;;;;15.30;6.30;;;;;;;13.40;100.00;99340.11;88525;277;22704;-78
2023/11/01 00:40:14;;;;;;;13.90;6.00;;;;;;;13.40;100.00;99332.17;88524;277;137315;-76
2023/11/01 00:42:17;;;;;;;9.00;6.00;;;;;;;13.39;100.00;99329.41;88616;281;23749;-72
2023/11/01 00:44:20;;;;;;;10.30;6.20;;;;;;;13.39;100.00;99325.06;88546;280;137277;-79
2023/11/01 00:46:22;;;;;;;9.40;6.70;;;;;;;13.40;100.00;99330.19;88521;280;22550;-78
2023/11/01 00:48:25;;;;;;;10.70;6.30;;;;;;;13.41;100.00;99328.11;88429;278;136866;-77
2023/11/01 00:50:26;;;;;;;12.30;7.00;;;;;;;13.39;100.00;99325.88;88681;273;25208;-78
2023/11/01 00:52:28;;;;;;;10.70;5.60;;;;;;;13.37;100.00;99325.41;88454;277;137049;-77
2023/11/01 00:54:30;;;;;;;10.30;6.70;;;;;;;13.36;100.00;99322.05;88452;272;25211;-80
2023/11/01 00:56:32;;;;;;;9.50;5.70;;;;;;;13.35;100.00;99319.36;88463;272;137006;-74
2023/11/01 00:58:35;;;;;;;15.00;7.30;;;;;;;13.34;100.00;99315.63;88541;272;22874;-76
2023/11/01 01:00:37;;;;;;;11.10;6.60;;;;;;;13.30;100.00;99311.48;89053;277;136974;-78
2023/11/01 01:02:38;;;;;;;14.60;9.10;;;;;;;13.30;100.00;99310.80;89249;281;22533;-78
2023/11/01 01:04:45;;;;;;;8.30;6.30;;;;;;;13.36;100.00;99306.90;89303;271;137131;-78
2023/11/01 01:06:47;;;;;;;15.50;7.30;;;;;;;13.35;100.00;99300.41;89293;279;22458;-76
2023/11/01 01:08:49;;;;;;;10.60;6.50;;;;;;;13.38;100.00;99305.30;89482;279;138122;-76
2023/11/01 01:10:50;;;;;;;11.20;6.80;;;;;;;13.38;100.00;99304.33;89766;280;24014;-82
2023/11/01 01:12:52;;;;;;;12.80;7.10;;;;;;;13.38;100.00;99307.27;89229;277;137551;-80
2023/11/01 01:14:56;;;;;;;13.50;6.70;;;;;;;13.38;100.00;99307.88;89209;281;25115;-78
2023/11/01 01:16:58;;;;;;;8.70;6.80;;;;;;;13.37;100.00;99309.36;88786;280;137213;-82
2023/11/01 01:19:00;;;;;;;15.20;6.60;;;;;;;13.29;100.00;99302.53;88510;281;22732;-83
2023/11/01 01:21:03;;;;;;;11.50;7.10;;;;;;;13.38;100.00;99318.94;88635;277;137202;-77
2023/11/01 01:23:04;;;;;;;15.10;7.10;;;;;;;13.40;100.00;99321.41;88677;280;22538;-82
2023/11/01 01:25:06;;;;;;;11.70;7.50;;;;;;;13.40;100.00;99327.98;88601;280;137172;-81
2023/11/01 01:27:08;;;;;;;9.70;7.00;;;;;;;13.37;100.00;99326.86;88521;276;24870;-79
2023/11/01 01:29:10;;;;;;;11.20;6.30;;;;;;;13.36;100.00;99333.70;88268;282;136932;-80
2023/11/01 01:31:12;;;;;;;9.80;7.20;;;;;;;13.37;100.00;99331.02;88425;275;25178;-79
2023/11/01 01:33:14;;;;;;;16.50;7.90;;;;;;;13.36;100.00;99324.31;88131;280;138316;-78
2023/11/01 01:35:16;;;;;;;8.00;6.30;;;;;;;13.36;100.00;99318.59;88534;280;25174;-77
2023/11/01 01:37:18;;;;;;;16.10;6.30;;;;;;;13.37;100.00;99322.58;88415;279;137899;-81
2023/11/01 01:39:20;;;;;;;13.60;7.30;;;;;;;13.37;100.00;99322.50;88344;280;22531;-78
2023/11/01 01:41:21;;;;;;;26.00;8.20;;;;;;;13.38;100.00;99322.77;88247;272;138157;-83
2023/11/01 01:43:24;;;;;;;12.50;7.80;;;;;;;13.41;100.00;99325.92;88277;279;24216;-79
2023/11/01 01:45:26;;;;;;;9.10;6.90;;;;;;;13.40;100.00;99320.86;88415;280;137282;-69
2023/11/01 01:47:27;;;;;;;11.80;6.50;;;;;;;13.43;100.00;99326.18;88304;280;22632;-78
2023/11/01 01:49:30;;;;;;;10.50;6.50;;;;;;;13.44;100.00;99322.83;88523;280;136824;-76
2023/11/01 01:51:41;;;;;;;11.90;7.50;;;;;;;13.49;100.00;99321.23;89048;272;23237;-78
2023/11/01 01:53:46;;;;;;;26.40;7.70;;;;;;;13.51;100.00;99320.74;88578;278;139169;-78
2023/11/01 01:55:49;;;;;;;12.50;6.50;;;;;;;13.49;100.00;99318.55;88665;272;22523;-76
2023/11/01 01:57:52;;;;;;;9.70;6.50;;;;;;;13.47;100.00;99316.52;88408;274;137149;-73
2023/11/01 01:59:56;;;;;;;12.30;7.70;;;;;;;13.46;100.00;99308.79;88464;280;25210;-80
2023/11/01 02:01:59;;;;;;;11.70;6.70;;;;;;;13.52;100.00;99302.55;88513;277;137778;-77
2023/11/01 02:04:02;;;;;;;11.70;7.60;;;;;;;13.47;100.00;99291.67;88514;279;22613;-73
2023/11/01 02:06:05;;;;;;;15.50;7.60;;;;;;;13.55;100.00;99304.72;88703;272;22602;-80
2023/11/01 02:08:07;;;;;;;12.00;7.00;;;;;;;13.61;100.00;99308.17;88512;280;139192;-71
2023/11/01 02:10:14;;;;;;;12.80;6.70;;;;;;;13.59;100.00;99307.29;88555;275;22554;-80
2023/11/01 02:12:16;;;;;;;14.60;6.50;;;;;;;13.62;100.00;99304.98;88465;276;137167;-78
2023/11/01 02:14:20;;;;;;;12.00;6.50;;;;;;;13.67;100.00;99305.05;88499;282;26036;-80
2023/11/01 02:16:23;;;;;;;8.60;6.70;;;;;;;13.73;100.00;99301.85;88587;272;136828;-80
2023/11/01 02:18:25;;;;;;;12.80;7.00;;;;;;;13.74;100.00;99306.86;88673;280;25206;-82
2023/11/01 02:20:28;;;;;;;7.40;6.00;;;;;;;13.77;100.00;99303.55;88551;280;136872;-79
2023/11/01 02:22:30;;;;;;;9.90;6.10;;;;;;;13.79;100.00;99311.36;88557;274;25213;-81
2023/11/01 02:24:35;;;;;;;12.00;7.20;;;;;;;13.80;100.00;99308.07;88458;278;137109;-79
2023/11/01 02:26:46;;;;;;;7.80;5.60;;;;;;;13.88;100.00;99309.45;88607;279;22539;-78
2023/11/01 02:28:47;;;;;;;12.30;6.90;;;;;;;13.91;100.00;99304.11;88610;276;136958;-77
2023/11/01 02:30:49;;;;;;;13.20;7.10;;;;;;;13.94;100.00;99307.35;88602;280;25280;-78
2023/11/01 02:32:51;;;;;;;10.30;6.70;;;;;;;13.97;100.00;99309.98;88379;273;137263;-79
2023/11/01 02:34:55;;;;;;;9.80;6.20;;;;;;;13.98;100.00;99303.25;88800;279;25080;-80
2023/11/01 02:36:57;;;;;;;8.60;6.50;;;;;;;14.00;100.00;99310.20;88555;278;137002;-78
2023/11/01 02:38:59;;;;;;;10.80;6.60;;;;;;;14.03;100.00;99303.93;88474;272;25190;-79
2023/11/01 02:41:00;;;;;;;12.80;7.10;;;;;;;14.05;100.00;99295.67;88465;281;137240;-77
2023/11/01 02:43:03;;;;;;;12.60;8.40;;;;;;;14.08;100.00;99290.05;88559;276;22545;-77
2023/11/01 02:45:09;;;;;;;12.90;8.00;;;;;;;14.10;100.00;99290.26;88415;273;137187;-76
2023/11/01 02:47:11;;;;;;;12.90;7.20;;;;;;;14.14;100.00;99289.15;88652;277;25137;-78
2023/11/01 02:49:12;;;;;;;11.80;6.30;;;;;;;14.10;100.00;99295.24;88488;273;138654;-77
2023/11/01 02:51:14;;;;;;;13.30;7.10;;;;;;;14.10;100.00;99300.38;88581;276;25138;-80
2023/11/01 02:53:16;;;;;;;12.50;7.00;;;;;;;14.11;100.00;99297.62;88385;281;137271;-75
2023/11/01 02:55:18;;;;;;;11.90;6.90;;;;;;;14.10;100.00;99289.02;88492;281;22523;-73
2023/11/01 02:57:19;;;;;;;11.30;7.00;;;;;;;14.15;100.00;99293.67;88513;272;137459;-80
2023/11/01 02:59:22;;;;;;;16.70;7.80;;;;;;;14.15;100.00;99290.47;88564;280;22734;-80
2023/11/01 03:01:24;;;;;;;12.50;7.20;;;;;;;14.17;100.00;99299.20;88569;280;138140;-77
2023/11/01 03:03:28;;;;;;;9.60;6.10;;;;;;;14.18;100.00;99298.80;89038;272;22532;-76
2023/11/01 03:05:30;;;;;;;13.30;7.30;;;;;;;14.20;100.00;99296.36;88818;276;137983;-78
2023/11/01 03:07:32;;;;;;;10.00;7.00;;;;;;;14.24;100.00;99297.16;88526;273;22532;-79
2023/11/01 03:09:34;;;;;;;13.60;7.20;;;;;;;14.25;100.00;99296.55;88585;279;137266;-77
2023/11/01 03:11:40;;;;;;;15.80;8.00;;;;;;;14.25;100.00;99287.03;88694;279;24054;-78
2023/11/01 03:13:42;;;;;;;11.30;7.70;;;;;;;14.25;100.00;99285.02;88575;273;138350;-77
2023/11/01 03:15:44;;;;;;;14.90;7.10;;;;;;;14.26;100.00;99280.04;88720;273;23719;-70
2023/11/01 03:17:47;;;;;;;11.00;7.20;;;;;;;14.27;100.00;99276.75;88591;276;137171;-79
2023/11/01 03:19:49;;;;;;;15.70;7.90;;;;;;;14.28;100.00;99272.61;88589;281;22531;-78
2023/11/01 03:21:51;;;;;;;15.10;7.90;;;;;;;14.28;100.00;99268.63;88508;276;138240;-80
2023/11/01 03:23:56;;;;;;;;;;;;;;;14.29;100.00;99262.33;88612;272;22792;-78
2023/11/01 03:25:58;;;;;;;12.90;7.80;;;;;;;14.29;100.00;99261.64;88527;279;128171;-81
2023/11/01 03:28:00;;;;;;;14.30;7.50;;;;;;;14.28;100.00;99264.04;88665;276;25222;-81
2023/11/01 03:30:07;;;;;;;15.20;8.30;;;;;;;14.27;100.00;99263.48;88522;282;22537;-78
2023/11/01 03:32:09;;;;;;;14.80;8.10;;;;;;;14.28;100.00;99265.79;88586;272;138069;-79
2023/11/01 03:34:11;;;;;;;12.70;8.00;;;;;;;14.28;100.00;99260.33;88571;278;22609;-77
2023/11/01 03:36:12;;;;;;;12.10;7.80;;;;;;;14.29;100.00;99257.23;88407;279;138642;-79
2023/11/01 03:38:15;;;;;;;12.00;7.80;;;;;;;14.29;100.00;99255.31;88700;272;22700;-79
2023/11/01 03:40:17;;;;;;;12.50;7.60;;;;;;;14.30;100.00;99254.36;88540;279;137363;-78
2023/11/01 03:42:20;;;;;;;13.00;8.90;;;;;;;14.28;100.00;99255.70;88514;281;22520;-80
2023/11/01 03:44:22;;;;;;;14.90;8.70;;;;;;;14.30;100.00;99259.61;88521;279;138701;-77
2023/11/01 03:46:25;;;;;;;10.90;7.90;;;;;;;14.30;100.00;99255.86;88580;280;22541;-78
2023/11/01 03:48:29;;;;;;;14.10;7.80;;;;;;;14.34;100.00;99259.09;88635;280;137142;-77
2023/11/01 03:50:30;;;;;;;14.40;8.20;;;;;;;14.35;100.00;99261.20;88641;279;22531;-76
2023/11/01 03:52:33;;;;;;;12.00;8.10;;;;;;;14.37;100.00;99259.36;88519;279;137064;-77
2023/11/01 03:54:35;;;;;;;16.10;10.10;;;;;;;14.37;100.00;99256.64;88652;276;22626;-80
2023/11/01 03:56:43;;;;;;;10.80;7.00;;;;;;;14.37;100.00;99254.33;88622;279;138327;-76
2023/11/01 03:58:44;;;;;;;11.40;8.40;;;;;;;14.33;100.00;99253.29;88773;277;22533;-78
2023/11/01 04:00:46;;;;;;;17.20;9.40;;;;;;;14.33;100.00;99253.71;88680;276;137095;-79
2023/11/01 04:02:52;;;;;;;17.80;8.60;;;;;;;14.31;100.00;99249.83;88609;273;25261;-78
2023/11/01 04:04:56;;;;;;;12.10;7.80;;;;;;;14.31;100.00;99250.36;88687;280;137457;-80
2023/11/01 04:06:57;;;;;;;19.30;10.30;;;;;;;14.33;100.00;99252.75;88516;276;23694;-74
2023/11/01 04:09:00;;;;;;;15.00;8.90;;;;;;;14.34;100.00;99251.70;88498;276;138926;-74
2023/11/01 04:11:01;;;;;;;11.70;8.10;;;;;;;14.32;100.00;99250.81;88597;280;22541;-76
2023/11/01 04:13:04;;;;;;;11.50;9.70;;;;;;;14.31;100.00;99250.77;88498;280;137172;-76
2023/11/01 04:15:13;;;;;;;18.10;9.70;;;;;;;14.36;100.00;99254.96;88682;280;22622;-78
2023/11/01 04:17:14;;;;;;;16.30;9.60;;;;;;;14.39;100.00;99255.34;88457;279;137009;-74
2023/11/01 04:19:17;;;;;;;15.60;9.30;;;;;;;14.42;100.00;99259.89;88584;279;22596;-78
2023/11/01 04:21:19;;;;;;;11.50;8.70;;;;;;;14.48;100.00;99256.41;88736;279;137329;-76
2023/11/01 04:23:22;;;;;;;17.00;9.40;;;;;;;14.52;100.00;99255.36;88642;279;26013;-75
2023/11/01 04:25:23;;;;;;;18.00;9.40;;;;;;;14.53;100.00;99257.73;90222;279;137166;-77
2023/11/01 04:27:25;;;;;;;14.20;9.90;;;;;;;14.55;100.00;99251.92;88541;280;25229;-77
2023/11/01 04:29:27;;;;;;;12.10;8.80;;;;;;;14.55;100.00;99245.80;88438;279;137235;-76
2023/11/01 04:31:29;;;;;;;19.90;10.40;;;;;;;14.59;100.00;99243.02;88557;282;25103;-76
2023/11/01 04:33:31;;;;;;;13.70;10.70;;;;;;;14.58;100.00;99242.95;88598;280;138235;-72
2023/11/01 04:35:34;;;;;;;13.60;9.40;;;;;;;14.56;100.00;99242.47;88797;276;25190;-74
2023/11/01 04:37:40;;;;;;;14.30;10.20;;;;;;;14.53;100.00;99247.32;88650;279;139833;-79
2023/11/01 04:39:46;;;;;;;16.00;9.60;;;;;;;14.52;100.00;99247.36;88689;279;22536;-78
2023/11/01 04:41:48;;;;;;;14.80;10.60;;;;;;;14.49;100.00;99246.77;88772;273;137249;-76
2023/11/01 04:43:49;;;;;;;17.00;10.30;;;;;;;14.48;100.00;99252.27;88563;272;22545;-75
2023/11/01 04:45:53;;;;;;;16.50;10.60;;;;;;;14.49;100.00;99246.83;88541;280;137301;-78
2023/11/01 04:47:57;;;;;;;15.30;10.80;;;;;;;14.48;100.00;99248.85;88591;273;26221;-76
2023/11/01 04:49:59;;;;;;;15.90;10.30;;;;;;;14.48;100.00;99247.94;88420;276;136969;-78
2023/11/01 04:52:02;;;;;;;14.30;11.20;;;;;;;14.48;100.00;99247.19;88643;272;25208;-77
2023/11/01 04:54:06;;;;;;;16.70;11.00;;;;;;;14.49;100.00;99252.30;88720;272;22558;-77
2023/11/01 04:56:10;;;;;;;14.30;10.10;;;;;;;14.51;100.00;99251.63;88736;276;137440;-74
2023/11/01 04:58:11;;;;;;;14.70;10.80;;;;;;;14.50;100.00;99248.80;88566;277;23715;-73
2023/11/01 05:00:16;;;;;;;15.60;10.90;;;;;;;14.54;100.00;99253.84;88502;280;137265;-76
2023/11/01 05:02:18;;;;;;;15.00;11.40;;;;;;;14.57;100.00;99259.44;88471;276;22534;-75
2023/11/01 05:04:20;;;;;;;15.90;11.70;;;;;;;14.59;100.00;99260.88;88397;272;137385;-77
2023/11/01 05:06:22;;;;;;;13.90;11.40;;;;;;;14.63;100.00;99260.27;88468;277;22534;-73
2023/11/01 05:08:24;;;;;;;13.10;11.70;;;;;;;14.68;100.00;99258.03;88408;276;137345;-74
2023/11/01 05:10:26;;;;;;;17.90;11.30;;;;;;;14.69;100.00;99260.09;88562;277;22534;-75
2023/11/01 05:12:29;;;;;;;17.90;11.60;;;;;;;14.69;100.00;99261.11;88051;272;137319;-73
2023/11/01 05:14:30;;;;;;;21.10;11.70;;;;;;;14.70;100.00;99263.54;88182;272;24284;-71
2023/11/01 05:16:32;;;;;;;13.00;11.30;;;;;;;14.71;100.00;99264.12;88167;272;138658;-74
2023/11/01 05:18:34;;;;;;;15.20;11.60;;;;;;;14.70;100.00;99263.98;88231;274;25750;-75
2023/11/01 05:20:38;;;;;;;18.50;13.50;;;;;;;14.69;100.00;99265.08;87954;275;137537;-74
2023/11/01 05:22:41;;;;;;;14.80;10.80;;;;;;;14.69;100.00;99273.61;87838;274;435493;-71
2023/11/01 05:24:46;;;;;;;13.70;11.40;;;;;;;14.68;100.00;99275.41;88396;272;137640;-77
2023/11/01 05:26:48;;;;;;;18.20;11.40;;;;;;;14.67;100.00;99279.68;88292;273;26263;-73
2023/11/01 05:28:50;;;;;;;14.90;11.80;;;;;;;14.67;100.00;99281.98;88331;278;137359;-77
2023/11/01 05:30:52;;;;;;;16.40;12.20;;;;;;;14.71;100.00;99290.70;88176;276;22550;-72
2023/11/01 05:32:53;;;;;;;15.30;10.70;;;;;;;14.76;100.00;99291.74;88093;272;139053;-73
2023/11/01 05:34:55;;;;;;;14.30;10.70;;;;;;;14.77;100.00;99291.23;88261;273;26254;-72
2023/11/01 05:36:57;;;;;;;12.80;10.80;;;;;;;14.78;100.00;99287.98;88089;273;137593;-70
2023/11/01 05:38:59;;;;;;;17.10;10.80;;;;;;;14.82;100.00;99287.19;88117;272;24311;-70
2023/11/01 05:41:00;;;;;;;14.20;11.60;;;;;;;14.83;100.00;99292.89;88068;272;138640;-70
2023/11/01 05:43:02;;;;;;;20.20;12.60;;;;;;;14.84;100.00;99293.48;88178;272;23718;-70
2023/11/01 05:45:05;;;;;;;16.80;10.70;;;;;;;14.85;100.00;99291.58;88096;272;137343;-69
2023/11/01 05:47:07;;;;;;;14.90;11.20;;;;;;;14.86;100.00;99301.55;88295;272;22537;-70
2023/11/01 05:49:09;;;;;;;14.30;11.50;;;;;;;14.87;100.00;99297.90;87998;272;138282;-71
2023/11/01 05:51:11;;;;;;;15.00;11.40;;;;;;;14.89;100.00;99292.52;88655;276;25226;-71
2023/11/01 05:53:12;;;;;;;12.70;11.20;;;;;;;14.91;100.00;99294.33;87980;273;137771;-69
2023/11/01 05:55:15;;;;;;;13.70;11.70;;;;;;;14.94;100.00;99296.63;88121;273;24095;-71
2023/11/01 05:57:31;;;;;;;13.00;11.30;;;;;;;14.99;100.00;99297.19;88048;273;137503;-71
2023/11/01 05:59:33;;;;;;;14.10;10.30;;;;;;;15.05;100.00;99302.02;88514;276;22555;-73
2023/11/01 06:01:36;;;;;;;17.60;11.70;;;;;;;15.10;100.00;99303.06;88039;273;138289;-70
2023/11/01 06:03:38;;;;;;;12.70;11.40;;;;;;;15.14;100.00;99306.67;90268;280;26272;-70
2023/11/01 06:05:40;;;;;;;15.80;11.50;;;;;;;15.18;100.00;99305.94;88107;272;138602;-71
2023/11/01 06:07:43;;;;;;;14.40;11.10;;;;;;;15.19;100.00;99300.63;88151;274;22553;-70
2023/11/01 06:09:44;;;;;;;14.10;11.30;;;;;;;15.21;100.00;99293.15;88277;272;137271;-71
2023/11/01 06:11:46;;;;;;;13.60;11.00;;;;;;;15.27;100.00;99291.47;88394;272;25144;-71
2023/11/01 06:13:49;;;;;;;14.60;11.00;;;;;;;15.32;100.00;99294.78;88233;280;138342;-72
2023/11/01 06:15:51;;;;;;;11.70;10.10;;;;;;;15.36;100.00;99289.46;88410;276;22548;-71
2023/11/01 06:17:53;;;;;;;13.00;11.20;;;;;;;15.39;100.00;99290.95;88462;272;136742;-70
2023/11/01 06:19:55;;;;;;;16.30;11.60;;;;;;;15.41;100.00;99294.52;88403;272;22822;-71
2023/11/01 06:21:57;;;;;;;13.50;11.50;;;;;;;15.42;100.00;99301.04;88603;274;137219;-71
2023/11/01 06:23:59;;;;;;;13.80;11.00;;;;;;;15.44;100.00;99307.13;88321;273;25465;-71
2023/11/01 06:26:04;;;;;;;14.30;10.60;;;;;;;15.44;100.00;99304.99;88585;276;24045;-71
2023/11/01 06:28:08;;;;;;;15.00;11.20;;;;;;;15.43;100.00;99310.13;88639;276;137532;-70
2023/11/01 06:30:11;;;;;;;12.40;10.30;;;;;;;15.42;100.00;99311.40;88491;280;24284;-71
2023/11/01 06:32:12;;;;;;;11.70;10.50;;;;;;;15.40;100.00;99311.85;88538;272;137424;-71
2023/11/01 06:34:14;;;;;;;11.40;10.20;;;;;;;15.37;100.00;99314.02;88389;272;22666;-71
2023/11/01 06:36:17;;;;;;;16.50;11.00;;;;;;;15.36;100.00;99315.33;88302;276;137639;-68
2023/11/01 06:38:19;;;;;;;17.30;11.70;;;;;;;15.36;100.00;99307.23;88393;273;25105;-69
2023/11/01 06:40:22;;;;;;;14.40;11.30;;;;;;;15.37;100.00;99298.77;88256;273;138712;-69
2023/11/01 06:42:24;;;;;;;14.00;11.30;;;;;;;15.39;100.00;99294.17;88365;272;24166;-69
2023/11/01 06:44:26;;;;;;;15.10;11.30;;;;;;;15.30;100.00;99287.92;88266;274;138429;-77
2023/11/01 06:46:28;;;;;;;11.70;10.50;;;;;;;15.34;100.00;99304.25;88633;275;25634;-72
2023/11/01 06:48:30;;;;;;;15.80;11.40;;;;;;;15.31;100.00;99312.85;88680;272;137470;-71
2023/11/01 06:50:32;;;;;;;16.30;10.90;;;;;;;15.32;100.00;99309.44;88581;276;24331;-70
2023/11/01 06:52:35;;;;;;;16.50;12.00;;;;;;;15.34;100.00;99308.23;88382;276;138632;-70
2023/11/01 06:54:38;;;;;;;19.40;13.60;;;;;;;15.34;100.00;99311.07;88429;280;22538;-71
2023/11/01 06:56:44;;;;;;;19.00;13.50;;;;;;;15.33;100.00;99310.91;88450;273;137509;-70
2023/11/01 06:58:46;;;;;;;20.30;12.10;;;;;;;15.31;100.00;99311.56;88599;273;23469;-71
2023/11/01 07:00:49;;;;;;;16.00;10.90;;;;;;;15.31;100.00;99313.11;88222;275;138434;-72
2023/11/01 07:02:51;;;;;;;15.60;11.10;;;;;;;15.33;100.00;99312.13;88424;280;22651;-69
2023/11/01 07:04:52;;;;;;;15.00;11.20;;;;;;;15.35;100.00;99319.29;88189;275;137234;-71
2023/11/01 07:06:56;;;;;;;21.40;11.90;;;;;;;15.33;100.00;99305.73;88461;280;24048;-70
2023/11/01 07:08:57;;;;;;;18.10;11.00;;;;;;;15.44;100.00;99313.00;88313;272;137432;-69
2023/11/01 07:10:59;;;;;;;13.40;10.30;;;;;;;15.50;100.00;99315.33;88495;272;25705;-71
2023/11/01 07:13:01;;;;;;;16.30;11.00;;;;;;;15.56;100.00;99319.18;88406;273;137447;-69
2023/11/01 07:15:07;;;;;;;11.60;10.40;;;;;;;15.63;100.00;99321.23;88602;272;24119;-70
2023/11/01 07:17:09;;;;;;;17.50;9.90;;;;;;;15.69;100.00;99317.27;88587;280;137436;-69
2023/11/01 07:19:15;;;;;;;21.60;11.30;;;;;;;15.75;100.00;99321.11;88554;272;22579;-70
2023/11/01 07:21:17;;;;;;;12.90;10.50;;;;;;;15.78;100.00;99320.17;88461;272;137440;-71
2023/11/01 07:23:19;;;;;;;12.40;10.00;;;;;;;15.81;100.00;99321.30;88641;272;22561;-72
2023/11/01 07:25:21;;;;;;;13.60;9.90;;;;;;;15.83;100.00;99321.21;88524;272;138712;-70
2023/11/01 07:27:24;;;;;;;12.50;9.40;;;;;;;15.86;100.00;99320.45;88218;281;22981;-70
2023/11/01 07:29:28;;;;;;;17.40;9.70;;;;;;;15.89;100.00;99320.01;88566;273;138486;-67
2023/11/01 07:31:30;;;;;;;13.30;9.90;;;;;;;15.90;100.00;99320.30;88233;276;23650;-67
2023/11/01 07:33:32;;;;;;;15.10;9.70;;;;;;;15.93;100.00;99318.02;88630;276;137349;-70
2023/11/01 07:35:34;;;;;;;19.50;10.40;;;;;;;15.98;100.00;99321.46;88447;280;22533;-70
2023/11/01 07:37:36;;;;;;;11.10;10.00;;;;;;;16.00;100.00;99320.32;88292;277;137188;-70
2023/11/01 07:39:37;;;;;;;12.60;9.40;;;;;;;16.01;100.00;99328.08;88309;273;22545;-69
2023/11/01 07:41:39;;;;;;;15.10;10.00;;;;;;;16.03;100.00;99328.69;88377;276;137030;-67
2023/11/01 07:43:42;;;;;;;13.20;10.10;;;;;;;16.02;100.00;99325.02;88481;278;26228;-68
2023/11/01 07:45:44;;;;;;;12.50;10.50;;;;;;;15.95;100.00;99312.19;88290;273;140125;-66
2023/11/01 07:47:46;;;;;;;9.90;8.30;;;;;;;16.01;100.00;99315.45;88490;273;22538;-69
2023/11/01 07:49:49;;;;;;;12.60;9.10;;;;;;;16.03;100.00;99314.94;88341;276;138486;-68
2023/11/01 07:51:51;;;;;;;12.40;9.50;;;;;;;16.05;100.00;99319.23;88580;276;22533;-69
2023/11/01 07:53:52;;;;;;;12.10;9.70;;;;;;;16.07;100.00;99321.16;88312;276;137252;-71
2023/11/01 07:55:54;;;;;;;13.30;9.20;;;;;;;16.07;100.00;99316.44;88454;273;25618;-69
2023/11/01 07:57:56;;;;;;;10.70;8.80;;;;;;;16.09;100.00;99314.02;88305;272;137167;-70
2023/11/01 07:59:58;;;;;;;8.70;7.90;;;;;;;16.11;100.00;99319.44;88545;280;26237;-69
2023/11/01 08:02:00;;;;;;;16.10;9.00;;;;;;;16.13;100.00;99317.21;88377;278;136750;-69
2023/11/01 08:04:03;;;;;;;11.20;8.50;;;;;;;16.16;100.00;99324.39;88555;272;25185;-69
2023/11/01 08:06:05;;;;;;;11.10;8.90;;;;;;;16.15;100.00;99326.64;88554;277;22791;-70
2023/11/01 08:08:08;;;;;;;13.90;8.60;;;;;;;16.17;100.00;99339.34;88355;279;137453;-70
2023/11/01 08:10:11;;;;;;;10.80;9.20;;;;;;;16.18;100.00;99336.23;88481;273;25160;-71
2023/11/01 08:12:13;;;;;;;17.20;10.00;;;;;;;16.18;100.00;99336.63;88380;276;138903;-68
2023/11/01 08:14:15;;;;;;;23.20;9.00;;;;;;;16.20;100.00;99333.73;88560;273;25168;-69
2023/11/01 08:16:16;;;;;;;10.80;8.60;;;;;;;16.23;100.00;99337.02;88298;272;137142;-68
2023/11/01 08:18:19;;;;;;;10.70;8.20;;;;;;;16.27;100.00;99339.75;88332;272;22600;-71
2023/11/01 08:20:24;;;;;;;13.90;7.40;;;;;;;16.33;100.00;99348.15;88473;278;138339;-70
2023/11/01 08:22:26;;;;;;;11.20;7.20;;;;;;;16.36;100.00;99360.95;88491;280;22544;-70
2023/11/01 08:24:28;;;;;;;11.30;7.70;;;;;;;16.38;100.00;99366.71;88424;280;136994;-69
2023/11/01 08:26:30;;;;;;;10.80;7.30;;;;;;;16.40;100.00;99368.56;88491;279;22523;-70
2023/11/01 08:28:32;;;;;;;10.20;7.80;;;;;;;16.41;100.00;99365.31;88343;276;137242;-67
2023/11/01 08:30:34;;;;;;;9.80;7.60;;;;;;;16.42;100.00;99370.64;88470;276;22121;-69
2023/11/01 08:32:38;;;;;;;9.70;8.70;;;;;;;16.45;100.00;99383.85;88384;276;138366;-69
2023/11/01 08:34:39;;;;;;;13.50;8.70;;;;;;;16.37;100.00;99381.52;88425;273;22518;-72
2023/11/01 08:36:42;;;;;;;14.30;8.10;;;;;;;16.44;100.00;99393.27;88399;276;137038;-67
2023/11/01 08:38:44;;;;;;;8.90;8.00;;;;;;;16.39;100.00;99386.53;88554;273;22545;-70
2023/11/01 08:40:46;;;;;;;8.70;6.90;;;;;;;16.47;100.00;99397.16;88612;272;137014;-68
2023/11/01 08:42:47;;;;;;;8.30;5.50;;;;;;;16.48;100.00;99400.77;88511;272;22851;-70
2023/11/01 08:44:50;;;;;;;7.60;5.90;;;;;;;16.47;100.00;99398.61;88384;274;136698;-69
2023/11/01 08:46:53;;;;;;;8.50;6.80;;;;;;;16.46;100.00;99396.77;88521;276;22776;-71
2023/11/01 08:48:55;;;;;;;8.60;6.20;;;;;;;16.47;100.00;99393.83;88572;273;136887;-70
2023/11/01 08:50:57;;;;;;;8.80;5.60;;;;;;;16.49;100.00;99391.21;88432;273;22119;-71
2023/11/01 08:52:59;;;;;;;8.20;5.00;;;;;;;16.49;100.00;99391.34;88247;278;139245;-69
2023/11/01 08:55:01;;;;;;;9.70;7.70;;;;;;;16.47;100.00;99389.04;88420;272;23728;-70
2023/11/01 08:57:02;;;;;;;10.00;6.10;;;;;;;16.46;100.00;99387.52;88370;279;138467;-69
2023/11/01 08:59:05;;;;;;;10.00;6.00;;;;;;;16.40;100.00;99384.77;88441;276;22527;-70
2023/11/01 09:01:07;;;;;;;8.70;6.10;;;;;;;16.33;100.00;99380.20;88461;272;137360;-71
2023/11/01 09:03:09;;;;;;;9.90;6.50;;;;;;;16.26;100.00;99386.15;88420;279;22877;-72
2023/11/01 09:05:12;;;;;;;12.00;5.80;;;;;;;16.22;100.00;99395.28;88351;280;136710;-73
2023/11/01 09:07:14;;;;;;;14.30;7.10;;;;;;;16.18;100.00;99396.36;88622;280;22538;-71
2023/11/01 09:09:16;;;;;;;9.60;6.10;;;;;;;16.17;100.00;99399.30;88411;276;137265;-71
2023/11/01 09:11:23;;;;;;;9.20;5.50;;;;;;;16.14;100.00;99402.77;88635;278;23745;-72
2023/11/01 09:13:25;;;;;;;9.90;6.60;;;;;;;16.11;100.00;99401.58;88921;274;138151;-70
2023/11/01 09:15:28;;;;;;;10.20;6.20;;;;;;;16.05;100.00;99405.27;88479;277;23699;-69
2023/11/01 09:17:30;;;;;;;12.40;6.40;;;;;;;15.98;100.00;99412.05;88366;273;138589;-72
2023/11/01 09:19:32;;;;;;;8.60;6.40;;;;;;;15.92;100.00;99407.81;88674;278;24258;-68
2023/11/01 09:21:36;;;;;;;14.30;7.60;;;;;;;15.90;100.00;99409.40;88379;277;136900;-72
2023/11/01 09:24:44;;;;;;;7.80;6.10;;;;;;;15.60;100.00;99393.92;86765;303;603023;-69
2023/11/01 09:26:47;;;;;;;7.80;5.20;;;;;;;15.58;100.00;99399.16;87839;293;22544;-71